createdAt,value
2023-04-27T00:00:40.286Z,6.62
2023-04-27T00:03:07.443Z,6.59
2023-04-27T00:05:39.401Z,6.56
2023-04-27T00:08:07.060Z,6.51
2023-04-27T00:10:33.972Z,6.46
2023-04-27T00:13:01.643Z,6.41
2023-04-27T00:15:28.870Z,6.39
2023-04-27T00:17:55.494Z,6.38
2023-04-27T00:20:21.987Z,6.33
2023-04-27T00:22:48.395Z,6.30
2023-04-27T00:25:14.881Z,6.28
2023-04-27T00:27:41.257Z,6.25
2023-04-27T00:30:08.323Z,6.22
2023-04-27T00:32:34.770Z,6.20
2023-04-27T00:35:01.221Z,6.18
2023-04-27T00:37:27.640Z,6.15
2023-04-27T00:39:54.031Z,6.14
2023-04-27T00:42:20.551Z,6.15
2023-04-27T00:44:47.140Z,6.15
2023-04-27T00:47:14.142Z,6.16
2023-04-27T00:49:41.044Z,6.15
2023-04-27T00:52:07.817Z,6.10
2023-04-27T00:54:34.601Z,6.11
2023-04-27T00:57:01.199Z,6.12
2023-04-27T00:59:29.038Z,6.10
2023-04-27T01:01:56.299Z,6.07
2023-04-27T01:04:23.315Z,6.07
2023-04-27T01:06:49.977Z,6.07
2023-04-27T01:09:19.498Z,6.06
2023-04-27T01:11:46.936Z,6.04
2023-04-27T01:14:13.364Z,6.02
2023-04-27T01:16:40.592Z,6.02
2023-04-27T01:19:08.951Z,6.00
2023-04-27T01:21:35.493Z,5.97
2023-04-27T01:24:01.911Z,5.96
2023-04-27T01:26:28.289Z,5.93
2023-04-27T01:28:54.672Z,5.90
2023-04-27T01:31:21.275Z,5.88
2023-04-27T01:33:47.744Z,5.86
2023-04-27T01:36:14.203Z,5.86
2023-04-27T01:38:41.069Z,5.84
2023-04-27T01:41:09.158Z,5.83
2023-04-27T01:43:37.064Z,5.82
2023-04-27T01:46:13.892Z,5.81
2023-04-27T01:48:40.998Z,5.77
2023-04-27T01:51:07.528Z,5.77
2023-04-27T01:53:34.297Z,5.74
2023-04-27T01:56:01.198Z,5.70
2023-04-27T01:58:28.052Z,5.66
2023-04-27T02:00:55.061Z,5.61
2023-04-27T02:03:22.006Z,5.55
2023-04-27T02:05:48.627Z,5.52
2023-04-27T02:08:15.057Z,5.48
2023-04-27T02:10:41.532Z,5.47
2023-04-27T02:13:08.221Z,5.47
2023-04-27T02:15:35.455Z,5.48
2023-04-27T02:18:03.664Z,5.48
2023-04-27T02:20:31.304Z,5.47
2023-04-27T02:22:57.849Z,5.47
2023-04-27T02:25:24.317Z,5.44
2023-04-27T02:27:50.985Z,5.43
2023-04-27T02:30:17.835Z,5.42
2023-04-27T02:32:44.897Z,5.39
2023-04-27T02:35:11.422Z,5.40
2023-04-27T02:37:37.961Z,5.39
2023-04-27T02:40:07.603Z,5.39
2023-04-27T02:42:34.105Z,5.36
2023-04-27T02:45:00.549Z,5.35
2023-04-27T02:47:27.347Z,5.32
2023-04-27T02:49:53.731Z,5.29
2023-04-27T02:52:20.550Z,5.27
2023-04-27T02:54:47.037Z,5.22
2023-04-27T02:57:13.404Z,5.19
2023-04-27T02:59:39.814Z,5.13
2023-04-27T03:02:06.252Z,5.09
2023-04-27T03:04:32.666Z,5.01
2023-04-27T03:06:59.201Z,4.95
2023-04-27T03:09:25.840Z,4.89
2023-04-27T03:11:52.801Z,4.85
2023-04-27T03:14:19.242Z,4.80
2023-04-27T03:16:45.745Z,4.75
2023-04-27T03:19:12.532Z,4.74
2023-04-27T03:21:39.424Z,4.72
2023-04-27T03:24:06.048Z,4.71
2023-04-27T03:26:32.513Z,4.70
2023-04-27T03:28:58.976Z,4.71
2023-04-27T03:31:25.509Z,4.72
2023-04-27T03:33:52.020Z,4.76
2023-04-27T03:36:18.458Z,4.77
2023-04-27T03:38:44.878Z,4.78
2023-04-27T03:41:11.441Z,4.80
2023-04-27T03:43:37.849Z,4.84
2023-04-27T03:46:04.438Z,4.84
2023-04-27T03:48:30.949Z,4.86
2023-04-27T03:50:57.488Z,4.84
2023-04-27T03:53:23.955Z,4.85
2023-04-27T03:55:50.686Z,4.84
2023-04-27T03:58:17.922Z,4.86
2023-04-27T04:00:44.377Z,4.86
2023-04-27T04:03:10.976Z,4.87
2023-04-27T04:05:37.437Z,4.87
2023-04-27T04:08:04.054Z,4.88
2023-04-27T04:10:30.553Z,4.89
2023-04-27T04:12:57.005Z,4.91
2023-04-27T04:15:23.419Z,4.92
2023-04-27T04:17:49.909Z,4.91
2023-04-27T04:20:16.737Z,4.94
2023-04-27T04:22:44.080Z,4.97
2023-04-27T04:25:10.638Z,4.99
2023-04-27T04:27:37.564Z,5.02
2023-04-27T04:30:06.124Z,5.06
2023-04-27T04:32:33.715Z,5.06
2023-04-27T04:35:01.560Z,5.10
2023-04-27T04:37:28.352Z,5.10
2023-04-27T04:39:54.804Z,5.12
2023-04-27T04:42:21.423Z,5.15
2023-04-27T04:44:47.841Z,5.16
2023-04-27T04:47:14.210Z,5.16
2023-04-27T04:49:40.673Z,5.16
2023-04-27T04:52:07.241Z,5.20
2023-04-27T04:54:33.632Z,5.21
2023-04-27T04:57:00.973Z,5.24
2023-04-27T04:59:27.384Z,5.25
2023-04-27T05:01:56.548Z,5.27
2023-04-27T05:04:23.297Z,5.31
2023-04-27T05:06:49.844Z,5.35
2023-04-27T05:09:16.258Z,5.39
2023-04-27T05:11:42.648Z,5.42
2023-04-27T05:14:09.155Z,5.44
2023-04-27T05:16:35.692Z,5.45
2023-04-27T05:19:02.237Z,5.45
2023-04-27T05:21:28.695Z,5.47
2023-04-27T05:23:55.226Z,5.49
2023-04-27T05:26:21.701Z,5.53
2023-04-27T05:28:49.356Z,5.55
2023-04-27T05:31:15.928Z,5.58
2023-04-27T05:33:42.471Z,5.60
2023-04-27T05:36:09.431Z,5.63
2023-04-27T05:38:39.962Z,5.67
2023-04-27T05:41:06.479Z,5.72
2023-04-27T05:43:34.967Z,5.76
2023-04-27T05:46:01.518Z,5.80
2023-04-27T05:48:28.024Z,5.85
2023-04-27T05:51:04.339Z,5.92
2023-04-27T05:53:32.429Z,5.96
2023-04-27T05:55:59.347Z,6.02
2023-04-27T05:58:25.913Z,6.08
2023-04-27T06:00:56.552Z,6.17
2023-04-27T06:03:23.230Z,6.24
2023-04-27T06:05:56.265Z,6.32
2023-04-27T06:08:24.542Z,6.39
2023-04-27T06:10:51.404Z,6.46
2023-04-27T06:13:18.121Z,6.53
2023-04-27T06:15:44.755Z,6.61
2023-04-27T06:18:11.295Z,6.68
2023-04-27T06:20:38.162Z,6.73
2023-04-27T06:23:04.620Z,6.78
2023-04-27T06:25:31.416Z,6.81
2023-04-27T06:27:58.386Z,6.86
2023-04-27T06:30:25.097Z,6.93
2023-04-27T06:32:52.085Z,7.03
2023-04-27T06:35:18.783Z,7.09
2023-04-27T06:37:45.744Z,7.15
2023-04-27T06:40:12.379Z,7.23
2023-04-27T06:42:38.856Z,7.33
2023-04-27T06:45:07.213Z,7.43
2023-04-27T06:47:33.783Z,7.51
2023-04-27T06:50:00.527Z,7.60
2023-04-27T06:52:27.225Z,7.68
2023-04-27T06:54:54.110Z,7.78
2023-04-27T06:57:20.471Z,7.87
2023-04-27T06:59:46.865Z,7.97
2023-04-27T07:02:13.356Z,8.08
2023-04-27T07:04:39.983Z,8.16
2023-04-27T07:07:06.423Z,8.24
2023-04-27T07:09:33.130Z,8.32
2023-04-27T07:12:01.184Z,8.42
2023-04-27T07:14:27.564Z,8.43
2023-04-27T07:16:53.970Z,8.45
2023-04-27T07:19:20.434Z,8.56
2023-04-27T07:21:46.821Z,8.62
2023-04-27T07:24:13.298Z,8.67
2023-04-27T07:26:39.722Z,8.73
2023-04-27T07:29:19.010Z,8.81
2023-04-27T07:31:52.889Z,8.91
2023-04-27T07:34:19.435Z,8.96
2023-04-27T07:36:45.863Z,9.03
2023-04-27T07:39:12.788Z,9.08
2023-04-27T07:41:39.445Z,9.15
2023-04-27T07:44:05.870Z,9.24
2023-04-27T07:46:32.813Z,9.33
2023-04-27T07:49:00.414Z,9.38
2023-04-27T07:51:28.687Z,9.47
2023-04-27T07:53:55.646Z,9.57
2023-04-27T07:56:22.255Z,9.67
2023-04-27T07:58:48.737Z,9.75
2023-04-27T08:01:15.224Z,9.87
2023-04-27T08:03:41.983Z,9.98
2023-04-27T08:06:08.899Z,10.10
2023-04-27T08:08:35.717Z,10.20
2023-04-27T08:11:02.210Z,10.33
2023-04-27T08:13:28.745Z,10.43
2023-04-27T08:15:59.195Z,10.51
2023-04-27T08:18:27.136Z,10.62
2023-04-27T08:20:53.956Z,10.70
2023-04-27T08:23:20.600Z,10.83
2023-04-27T08:25:47.525Z,10.86
2023-04-27T08:28:15.152Z,10.95
2023-04-27T08:30:44.897Z,11.11
2023-04-27T08:33:11.377Z,11.27
2023-04-27T08:35:38.122Z,11.38
2023-04-27T08:38:04.613Z,11.52
2023-04-27T08:40:31.113Z,11.63
2023-04-27T08:42:59.377Z,11.69
2023-04-27T08:45:27.173Z,11.78
2023-04-27T08:47:53.976Z,11.87
2023-04-27T08:50:20.572Z,11.99
2023-04-27T08:52:48.122Z,12.09
2023-04-27T08:55:16.685Z,12.17
2023-04-27T08:57:54.555Z,12.23
2023-04-27T09:00:21.197Z,12.24
2023-04-27T09:02:51.981Z,12.35
2023-04-27T09:05:24.451Z,12.41
2023-04-27T09:08:05.173Z,12.46
2023-04-27T09:10:44.377Z,12.54
2023-04-27T09:13:10.766Z,12.63
2023-04-27T09:15:47.758Z,12.72
2023-04-27T09:18:17.436Z,12.81
2023-04-27T09:20:53.571Z,12.93
2023-04-27T09:23:27.997Z,12.98
2023-04-27T09:25:59.372Z,13.01
2023-04-27T09:28:30.902Z,13.10
2023-04-27T09:30:59.454Z,13.21
2023-04-27T09:33:31.554Z,13.33
2023-04-27T09:36:06.013Z,13.49
2023-04-27T09:38:33.318Z,13.65
2023-04-27T09:41:00.312Z,13.77
2023-04-27T09:43:28.704Z,13.87
2023-04-27T09:45:56.197Z,14.01
2023-04-27T09:48:23.768Z,14.18
2023-04-27T09:50:51.690Z,14.24
2023-04-27T09:53:26.291Z,14.43
2023-04-27T09:55:55.646Z,14.54
2023-04-27T09:58:43.513Z,14.66
2023-04-27T10:01:18.140Z,14.73
2023-04-27T10:04:13.263Z,14.76
2023-04-27T10:07:04.866Z,14.95
2023-04-27T10:09:37.030Z,15.12
2023-04-27T10:12:26.283Z,15.36
2023-04-27T10:14:58.335Z,15.57
2023-04-27T10:17:36.487Z,15.70
2023-04-27T10:20:08.902Z,15.41
2023-04-27T10:22:43.525Z,15.45
2023-04-27T10:25:25.611Z,15.19
2023-04-27T10:27:56.542Z,15.35
2023-04-27T10:30:25.888Z,15.58
2023-04-27T10:33:00.361Z,15.51
2023-04-27T10:35:37.677Z,15.54
2023-04-27T10:38:17.354Z,15.33
2023-04-27T10:41:01.868Z,15.52
2023-04-27T10:43:30.644Z,15.58
2023-04-27T10:46:16.324Z,15.60
2023-04-27T10:48:44.355Z,15.81
2023-04-27T10:51:16.507Z,15.97
2023-04-27T10:53:43.015Z,16.26
2023-04-27T10:56:10.072Z,16.48
2023-04-27T11:01:08.134Z,16.87
2023-04-27T11:03:35.178Z,16.98
2023-04-27T11:06:05.910Z,17.21
2023-04-27T11:08:36.619Z,17.28
2023-04-27T11:11:03.788Z,17.33
2023-04-27T11:13:30.971Z,17.52
2023-04-27T11:15:59.066Z,17.75
2023-04-27T11:18:27.654Z,18.01
2023-04-27T11:21:05.841Z,17.99
2023-04-27T11:23:39.299Z,17.96
2023-04-27T11:26:17.026Z,17.97
2023-04-27T11:29:01.558Z,17.82
2023-04-27T11:31:38.199Z,17.95
2023-04-27T11:34:04.725Z,17.97
2023-04-27T11:36:31.713Z,18.16
2023-04-27T11:39:00.039Z,18.22
2023-04-27T11:41:37.110Z,18.40
2023-04-27T11:44:08.236Z,18.44
2023-04-27T11:46:38.894Z,18.33
2023-04-27T11:49:06.647Z,18.41
2023-04-27T11:51:33.465Z,18.55
2023-04-27T11:54:04.745Z,18.37
2023-04-27T11:56:39.401Z,18.52
2023-04-27T11:59:06.766Z,18.58
2023-04-27T12:01:37.989Z,18.43
2023-04-27T12:04:05.341Z,18.68
2023-04-27T12:06:33.736Z,18.53
2023-04-27T12:09:00.903Z,18.41
2023-04-27T12:11:30.749Z,18.71
2023-04-27T12:13:57.530Z,18.90
2023-04-27T12:16:24.123Z,18.91
2023-04-27T12:18:50.811Z,18.98
2023-04-27T12:21:17.988Z,18.90
2023-04-27T12:23:44.639Z,18.99
2023-04-27T12:26:14.261Z,19.03
2023-04-27T12:28:41.646Z,19.20
2023-04-27T12:31:08.531Z,19.29
2023-04-27T12:33:35.220Z,19.51
2023-04-27T12:36:01.802Z,19.71
2023-04-27T12:38:28.245Z,19.81
2023-04-27T12:40:54.857Z,20.00
2023-04-27T12:43:21.260Z,20.19
2023-04-27T12:45:47.692Z,20.35
2023-04-27T12:48:16.965Z,20.40
2023-04-27T12:50:44.211Z,20.34
2023-04-27T12:53:10.648Z,20.41
2023-04-27T12:55:37.428Z,20.60
2023-04-27T12:58:04.854Z,20.82
2023-04-27T13:00:31.411Z,20.97
2023-04-27T13:02:58.711Z,21.14
2023-04-27T13:05:26.420Z,21.37
2023-04-27T13:07:52.977Z,21.61
2023-04-27T13:10:19.392Z,21.68
2023-04-27T13:12:45.935Z,21.90
2023-04-27T13:15:12.360Z,22.08
2023-04-27T13:17:40.270Z,22.16
2023-04-27T13:20:09.017Z,22.15
2023-04-27T13:22:35.676Z,22.09
2023-04-27T13:25:02.191Z,22.08
2023-04-27T13:27:28.673Z,22.12
2023-04-27T13:29:55.889Z,22.35
2023-04-27T13:32:22.675Z,21.71
2023-04-27T13:34:50.266Z,21.76
2023-04-27T13:37:17.413Z,21.83
2023-04-27T13:39:44.115Z,21.81
2023-04-27T13:42:10.851Z,21.94
2023-04-27T13:47:08.047Z,22.13
2023-04-27T13:49:34.583Z,22.31
2023-04-27T13:52:01.124Z,22.47
2023-04-27T13:54:28.722Z,22.45
2023-04-27T13:56:55.124Z,22.42
2023-04-27T13:59:21.745Z,22.52
2023-04-27T14:01:48.181Z,22.71
2023-04-27T14:04:14.650Z,22.80
2023-04-27T14:06:41.588Z,22.98
2023-04-27T14:09:09.217Z,23.18
2023-04-27T14:11:42.299Z,23.28
2023-04-27T14:14:15.200Z,23.45
2023-04-27T14:16:41.697Z,23.39
2023-04-27T14:19:08.847Z,23.33
2023-04-27T14:21:35.240Z,23.41
2023-04-27T14:24:01.627Z,23.34
2023-04-27T14:26:28.047Z,23.19
2023-04-27T14:28:58.469Z,23.21
2023-04-27T14:31:26.515Z,23.25
2023-04-27T14:33:53.029Z,23.29
2023-04-27T14:36:19.588Z,23.52
2023-04-27T14:38:46.354Z,23.69
2023-04-27T14:41:12.970Z,23.41
2023-04-27T14:43:39.366Z,23.31
2023-04-27T14:46:19.751Z,23.23
2023-04-27T14:48:47.406Z,23.39
2023-04-27T14:51:14.691Z,23.58
2023-04-27T14:53:41.253Z,23.70
2023-04-27T14:56:07.876Z,23.86
2023-04-27T14:58:34.630Z,23.88
2023-04-27T15:01:01.624Z,23.70
2023-04-27T15:03:28.825Z,23.25
2023-04-27T15:05:55.419Z,23.03
2023-04-27T15:08:22.272Z,22.57
2023-04-27T15:10:48.741Z,22.65
2023-04-27T15:13:15.167Z,22.72
2023-04-27T15:15:41.694Z,22.73
2023-04-27T15:18:08.146Z,22.63
2023-04-27T15:20:34.576Z,22.70
2023-04-27T15:23:01.019Z,22.95
2023-04-27T15:25:27.653Z,23.10
2023-04-27T15:27:54.097Z,23.08
2023-04-27T15:30:20.670Z,22.67
2023-04-27T15:32:47.857Z,22.94
2023-04-27T15:35:14.303Z,23.25
2023-04-27T15:37:41.021Z,23.40
2023-04-27T15:40:08.788Z,23.41
2023-04-27T15:42:35.361Z,23.19
2023-04-27T15:45:02.002Z,23.04
2023-04-27T15:47:28.398Z,22.90
2023-04-27T15:49:57.842Z,22.80
2023-04-27T15:52:26.515Z,22.72
2023-04-27T15:54:52.928Z,22.58
2023-04-27T15:57:19.331Z,22.62
2023-04-27T15:59:45.975Z,22.61
2023-04-27T16:02:13.263Z,22.69
2023-04-27T16:04:39.777Z,22.56
2023-04-27T16:07:09.923Z,22.48
2023-04-27T16:09:36.765Z,22.39
2023-04-27T16:12:03.836Z,22.16
2023-04-27T16:14:30.425Z,22.20
2023-04-27T16:17:00.822Z,22.13
2023-04-27T16:19:27.496Z,21.92
2023-04-27T16:21:54.158Z,21.63
2023-04-27T16:24:20.776Z,21.45
2023-04-27T16:26:47.620Z,21.33
2023-04-27T16:29:14.237Z,21.24
2023-04-27T16:31:42.650Z,21.12
2023-04-27T16:34:09.158Z,21.05
2023-04-27T16:36:35.560Z,20.95
2023-04-27T16:39:03.412Z,20.72
2023-04-27T16:41:29.875Z,20.57
2023-04-27T16:43:56.354Z,20.35
2023-04-27T16:46:22.832Z,20.23
2023-04-27T16:48:49.293Z,20.05
2023-04-27T16:51:15.860Z,19.90
2023-04-27T16:53:42.207Z,19.76
2023-04-27T16:56:10.022Z,19.53
2023-04-27T16:58:36.527Z,19.38
2023-04-27T17:01:02.980Z,19.23
2023-04-27T17:03:30.018Z,19.13
2023-04-27T17:05:56.595Z,19.01
2023-04-27T17:08:23.045Z,18.89
2023-04-27T17:10:49.431Z,18.84
2023-04-27T17:13:17.328Z,18.73
2023-04-27T17:15:43.863Z,18.67
2023-04-27T17:18:10.485Z,18.62
2023-04-27T17:20:38.362Z,18.55
2023-04-27T17:23:07.000Z,18.44
2023-04-27T17:25:33.437Z,18.40
2023-04-27T17:28:01.456Z,18.38
2023-04-27T17:30:28.364Z,18.34
2023-04-27T17:32:54.830Z,18.29
2023-04-27T17:35:21.597Z,18.27
2023-04-27T17:37:48.084Z,18.22
2023-04-27T17:40:16.341Z,18.18
2023-04-27T17:42:42.764Z,18.15
2023-04-27T17:45:09.619Z,18.13
2023-04-27T17:47:36.430Z,18.12
2023-04-27T17:50:02.884Z,18.07
2023-04-27T17:52:29.356Z,18.00
2023-04-27T17:54:55.971Z,17.96
2023-04-27T17:57:22.719Z,17.92
2023-04-27T17:59:50.308Z,17.85
2023-04-27T18:02:17.333Z,17.77
2023-04-27T18:04:43.985Z,17.70
2023-04-27T18:07:10.399Z,17.60
2023-04-27T18:09:36.854Z,17.57
2023-04-27T18:12:04.157Z,17.51
2023-04-27T18:14:30.555Z,17.43
2023-04-27T18:16:57.055Z,17.36
2023-04-27T18:19:23.602Z,17.29
2023-04-27T18:21:50.078Z,17.23
2023-04-27T18:24:16.480Z,17.15
2023-04-27T18:26:42.862Z,17.10
2023-04-27T18:29:09.221Z,17.04
2023-04-27T18:31:36.215Z,16.97
2023-04-27T18:34:02.617Z,16.92
2023-04-27T18:36:29.082Z,16.87
2023-04-27T18:38:57.914Z,16.82
2023-04-27T18:41:24.742Z,16.75
2023-04-27T18:43:51.430Z,16.65
2023-04-27T18:46:18.534Z,16.59
2023-04-27T18:48:44.989Z,16.51
2023-04-27T18:51:11.429Z,16.44
2023-04-27T18:53:37.883Z,16.36
2023-04-27T18:56:06.310Z,16.28
2023-04-27T18:58:33.461Z,16.18
2023-04-27T19:00:59.898Z,16.10
2023-04-27T19:03:26.748Z,16.04
2023-04-27T19:05:53.541Z,15.95
2023-04-27T19:08:19.955Z,15.87
2023-04-27T19:10:46.388Z,15.78
2023-04-27T19:13:12.838Z,15.71
2023-04-27T19:15:39.297Z,15.64
2023-04-27T19:18:10.477Z,15.56
2023-04-27T19:20:38.583Z,15.49
2023-04-27T19:23:05.437Z,15.41
2023-04-27T19:25:31.962Z,15.37
2023-04-27T19:27:58.641Z,15.32
2023-04-27T19:30:25.254Z,15.24
2023-04-27T19:32:52.097Z,15.15
2023-04-27T19:35:20.184Z,15.06
2023-04-27T19:37:46.667Z,14.98
2023-04-27T19:40:13.473Z,14.91
2023-04-27T19:42:40.085Z,14.83
2023-04-27T19:45:07.126Z,14.79
2023-04-27T19:47:33.977Z,14.71
2023-04-27T19:50:00.532Z,14.69
2023-04-27T19:52:26.961Z,14.66
2023-04-27T19:54:54.134Z,14.67
2023-04-27T19:57:21.529Z,14.63
2023-04-27T19:59:48.228Z,14.63
2023-04-27T20:02:14.848Z,14.61
2023-04-27T20:04:41.748Z,14.58
2023-04-27T20:07:08.570Z,14.55
2023-04-27T20:09:35.168Z,14.53
2023-04-27T20:12:01.982Z,14.51
2023-04-27T20:14:31.100Z,14.48
2023-04-27T20:16:57.507Z,14.45
2023-04-27T20:19:25.045Z,14.42
2023-04-27T20:21:52.557Z,14.38
2023-04-27T20:24:19.036Z,14.32
2023-04-27T20:26:46.402Z,14.29
2023-04-27T20:29:13.029Z,14.26
2023-04-27T20:31:39.500Z,14.23
2023-04-27T20:34:05.970Z,14.22
2023-04-27T20:36:33.173Z,14.20
2023-04-27T20:39:03.863Z,14.15
2023-04-27T20:41:30.479Z,14.11
2023-04-27T20:43:56.880Z,14.08
2023-04-27T20:46:23.295Z,14.04
2023-04-27T20:48:49.752Z,14.00
2023-04-27T20:51:16.250Z,13.98
2023-04-27T20:53:42.826Z,13.91
2023-04-27T20:56:09.609Z,13.90
2023-04-27T20:58:36.076Z,13.87
2023-04-27T21:01:02.549Z,13.87
2023-04-27T21:03:29.160Z,13.85
2023-04-27T21:05:56.004Z,13.86
2023-04-27T21:08:22.467Z,13.83
2023-04-27T21:10:48.893Z,13.81
2023-04-27T21:13:15.561Z,13.80
2023-04-27T21:15:41.987Z,13.78
2023-04-27T21:18:13.430Z,13.77
2023-04-27T21:20:45.550Z,13.74
2023-04-27T21:23:14.590Z,13.71
2023-04-27T21:25:45.390Z,13.71
2023-04-27T21:28:12.163Z,13.68
2023-04-27T21:30:39.219Z,13.68
2023-04-27T21:33:05.918Z,13.68
2023-04-27T21:35:32.579Z,13.65
2023-04-27T21:37:59.358Z,13.66
2023-04-27T21:40:26.138Z,13.68
2023-04-27T21:42:53.262Z,13.67
2023-04-27T21:45:20.246Z,13.66
2023-04-27T21:47:46.945Z,13.64
2023-04-27T21:50:13.500Z,13.63
2023-04-27T21:52:39.926Z,13.61
2023-04-27T21:55:06.575Z,13.58
2023-04-27T21:57:33.027Z,13.55
2023-04-27T21:59:59.995Z,13.55
2023-04-27T22:02:26.684Z,13.52
2023-04-27T22:04:53.280Z,13.51
2023-04-27T22:07:19.900Z,13.50
2023-04-27T22:09:46.327Z,13.47
2023-04-27T22:12:12.747Z,13.46
2023-04-27T22:14:39.150Z,13.43
2023-04-27T22:17:05.533Z,13.43
2023-04-27T22:19:32.277Z,13.43
2023-04-27T22:21:58.683Z,13.44
2023-04-27T22:24:25.066Z,13.44
2023-04-27T22:26:52.514Z,13.44
2023-04-27T22:29:18.927Z,13.43
2023-04-27T22:31:45.686Z,13.42
2023-04-27T22:34:13.222Z,13.42
2023-04-27T22:36:39.875Z,13.41
2023-04-27T22:39:07.155Z,13.40
2023-04-27T22:41:33.988Z,13.39
2023-04-27T22:44:00.549Z,13.37
2023-04-27T22:46:27.096Z,13.36
2023-04-27T22:48:53.921Z,13.34
2023-04-27T22:51:21.634Z,13.35
2023-04-27T22:53:48.643Z,13.34
2023-04-27T22:56:15.113Z,13.33
2023-04-27T22:58:41.500Z,13.33
2023-04-27T23:01:07.975Z,13.33
2023-04-27T23:03:34.676Z,13.33
2023-04-27T23:06:01.304Z,13.35
2023-04-27T23:08:28.847Z,13.35
2023-04-27T23:10:56.209Z,13.37
2023-04-27T23:13:26.741Z,13.37
2023-04-27T23:15:54.334Z,13.36
2023-04-27T23:18:21.300Z,13.35
2023-04-27T23:20:52.694Z,13.37
2023-04-27T23:23:19.126Z,13.35
2023-04-27T23:25:45.790Z,13.36
2023-04-27T23:28:12.206Z,13.36
2023-04-27T23:30:38.703Z,13.34
2023-04-27T23:33:05.347Z,13.35
2023-04-27T23:35:31.874Z,13.34
2023-04-27T23:37:58.461Z,13.32
2023-04-27T23:40:24.872Z,13.31
2023-04-27T23:42:51.775Z,13.30
2023-04-27T23:45:18.517Z,13.29
2023-04-27T23:47:45.512Z,13.28
2023-04-27T23:50:11.948Z,13.28
2023-04-27T23:52:38.379Z,13.28
2023-04-27T23:55:05.198Z,13.29
2023-04-27T23:57:31.736Z,13.30
2023-04-27T23:59:58.122Z,13.31
